sensor_id;sensor_type;location;lat;lon;timestamp;pressure;altitude;pressure_sealevel;temperature;humidity
57859;BME280;49153;45.568;11.894;2022-12-29T00:01:49;102147.22;;;6.74;86.55
57859;BME280;49153;45.568;11.894;2022-12-29T00:04:14;102152.50;;;6.72;86.18
57859;BME280;49153;45.568;11.894;2022-12-29T00:06:42;102151.53;;;6.76;86.25
57859;BME280;49153;45.568;11.894;2022-12-29T00:09:08;102139.34;;;6.74;86.42
57859;BME280;49153;45.568;11.894;2022-12-29T00:11:33;102155.91;;;6.76;86.12
57859;BME280;49153;45.568;11.894;2022-12-29T00:13:59;102154.97;;;6.77;86.35
57859;BME280;49153;45.568;11.894;2022-12-29T00:16:44;102165.19;;;6.86;86.53
57859;BME280;49153;45.568;11.894;2022-12-29T00:19:11;102143.44;;;6.83;86.57
57859;BME280;49153;45.568;11.894;2022-12-29T00:21:56;102149.25;;;6.92;86.39
57859;BME280;49153;45.568;11.894;2022-12-29T00:24:40;102141.25;;;6.95;86.39
57859;BME280;49153;45.568;11.894;2022-12-29T00:27:25;102139.50;;;6.96;86.06
57859;BME280;49153;45.568;11.894;2022-12-29T00:30:20;102125.69;;;6.91;86.18
57859;BME280;49153;45.568;11.894;2022-12-29T00:35:57;102124.50;;;6.99;86.25
57859;BME280;49153;45.568;11.894;2022-12-29T00:38:23;102116.63;;;6.99;86.60
57859;BME280;49153;45.568;11.894;2022-12-29T00:41:08;102121.34;;;7.14;86.47
57859;BME280;49153;45.568;11.894;2022-12-29T00:43:52;102116.91;;;7.16;86.10
57859;BME280;49153;45.568;11.894;2022-12-29T00:46:39;102116.59;;;7.26;86.33
57859;BME280;49153;45.568;11.894;2022-12-29T00:49:07;102116.59;;;7.26;85.78
57859;BME280;49153;45.568;11.894;2022-12-29T00:51:52;102114.94;;;7.23;85.40
57859;BME280;49153;45.568;11.894;2022-12-29T00:54:17;102105.59;;;7.14;85.57
57859;BME280;49153;45.568;11.894;2022-12-29T00:56:46;102095.50;;;7.04;85.94
57859;BME280;49153;45.568;11.894;2022-12-29T00:59:11;102103.50;;;6.99;85.86
57859;BME280;49153;45.568;11.894;2022-12-29T01:01:37;102094.88;;;6.97;86.03
57859;BME280;49153;45.568;11.894;2022-12-29T01:04:04;102087.25;;;6.90;86.16
57859;BME280;49153;45.568;11.894;2022-12-29T01:06:30;102103.59;;;6.98;86.34
57859;BME280;49153;45.568;11.894;2022-12-29T01:08:56;102099.41;;;6.92;86.54
57859;BME280;49153;45.568;11.894;2022-12-29T01:11:40;102101.09;;;6.93;86.62
57859;BME280;49153;45.568;11.894;2022-12-29T01:14:06;102115.03;;;6.95;86.75
57859;BME280;49153;45.568;11.894;2022-12-29T01:16:32;102108.94;;;6.95;86.59
57859;BME280;49153;45.568;11.894;2022-12-29T01:18:58;102099.28;;;6.95;86.86
57859;BME280;49153;45.568;11.894;2022-12-29T01:21:24;102109.47;;;7.04;86.51
57859;BME280;49153;45.568;11.894;2022-12-29T01:23:50;102123.28;;;7.09;86.79
57859;BME280;49153;45.568;11.894;2022-12-29T01:26:16;102097.38;;;7.00;86.45
57859;BME280;49153;45.568;11.894;2022-12-29T01:28:42;102115.41;;;7.09;86.40
57859;BME280;49153;45.568;11.894;2022-12-29T01:31:09;102100.69;;;7.05;86.16
57859;BME280;49153;45.568;11.894;2022-12-29T01:33:35;102087.97;;;6.93;86.51
57859;BME280;49153;45.568;11.894;2022-12-29T01:36:05;102123.47;;;7.03;86.61
57859;BME280;49153;45.568;11.894;2022-12-29T01:38:32;102107.28;;;6.92;86.48
57859;BME280;49153;45.568;11.894;2022-12-29T01:40:58;102122.91;;;6.95;86.97
57859;BME280;49153;45.568;11.894;2022-12-29T01:43:48;102133.50;;;6.92;86.76
57859;BME280;49153;45.568;11.894;2022-12-29T01:46:20;102120.63;;;6.85;86.64
57859;BME280;49153;45.568;11.894;2022-12-29T01:49:02;102121.53;;;6.84;86.80
57859;BME280;49153;45.568;11.894;2022-12-29T01:51:31;102119.69;;;6.87;86.92
57859;BME280;49153;45.568;11.894;2022-12-29T01:54:01;102110.09;;;6.86;87.12
57859;BME280;49153;45.568;11.894;2022-12-29T01:56:28;102111.81;;;6.87;86.82
57859;BME280;49153;45.568;11.894;2022-12-29T01:59:02;102111.88;;;6.86;86.87
57859;BME280;49153;45.568;11.894;2022-12-29T02:01:30;102119.69;;;6.87;86.86
57859;BME280;49153;45.568;11.894;2022-12-29T02:03:55;102131.13;;;6.85;86.53
57859;BME280;49153;45.568;11.894;2022-12-29T02:06:23;102109.44;;;6.79;86.97
57859;BME280;49153;45.568;11.894;2022-12-29T02:08:53;102113.72;;;6.82;86.62
57859;BME280;49153;45.568;11.894;2022-12-29T02:11:21;102129.09;;;6.93;86.68
57859;BME280;49153;45.568;11.894;2022-12-29T02:13:48;102105.97;;;6.79;86.61
57859;BME280;49153;45.568;11.894;2022-12-29T02:32:36;102111.16;;;6.81;86.71
57859;BME280;49153;45.568;11.894;2022-12-29T02:35:14;102099.97;;;6.75;87.14
57859;BME280;49153;45.568;11.894;2022-12-29T02:45:31;102098.97;;;6.79;87.44
57859;BME280;49153;45.568;11.894;2022-12-29T02:50:49;102083.38;;;6.75;86.89
57859;BME280;49153;45.568;11.894;2022-12-29T02:53:17;102092.28;;;6.71;86.87
57859;BME280;49153;45.568;11.894;2022-12-29T02:56:04;102093.94;;;6.72;87.11
57859;BME280;49153;45.568;11.894;2022-12-29T02:58:29;102096.34;;;6.79;87.33
57859;BME280;49153;45.568;11.894;2022-12-29T03:09:30;102093.56;;;6.84;87.41
57859;BME280;49153;45.568;11.894;2022-12-29T03:14:55;102076.78;;;6.88;87.31
57859;BME280;49153;45.568;11.894;2022-12-29T03:17:55;102075.16;;;6.86;87.01
57859;BME280;49153;45.568;11.894;2022-12-29T03:20:28;102069.13;;;6.82;87.28
57859;BME280;49153;45.568;11.894;2022-12-29T03:22:58;102074.28;;;6.85;87.25
57859;BME280;49153;45.568;11.894;2022-12-29T03:25:47;102070.00;;;6.83;87.04
57859;BME280;49153;45.568;11.894;2022-12-29T03:28:18;102065.81;;;6.77;87.18
57859;BME280;49153;45.568;11.894;2022-12-29T03:30:47;102059.78;;;6.75;87.17
57859;BME280;49153;45.568;11.894;2022-12-29T03:33:15;102061.78;;;6.67;87.26
57859;BME280;49153;45.568;11.894;2022-12-29T03:35:45;102062.59;;;6.69;87.52
57859;BME280;49153;45.568;11.894;2022-12-29T03:38:16;102069.38;;;6.76;87.40
57859;BME280;49153;45.568;11.894;2022-12-29T03:40:44;102058.03;;;6.75;87.78
57859;BME280;49153;45.568;11.894;2022-12-29T03:43:11;102058.03;;;6.75;87.50
57859;BME280;49153;45.568;11.894;2022-12-29T03:45:38;102060.81;;;6.71;87.52
57859;BME280;49153;45.568;11.894;2022-12-29T03:48:04;102072.06;;;6.73;88.05
57859;BME280;49153;45.568;11.894;2022-12-29T03:50:29;102069.44;;;6.73;87.95
57859;BME280;49153;45.568;11.894;2022-12-29T03:52:55;102063.56;;;6.66;87.75
57859;BME280;49153;45.568;11.894;2022-12-29T03:55:20;102055.66;;;6.68;87.91
57859;BME280;49153;45.568;11.894;2022-12-29T03:57:45;102056.47;;;6.70;87.85
57859;BME280;49153;45.568;11.894;2022-12-29T04:00:11;102067.72;;;6.72;87.81
57859;BME280;49153;45.568;11.894;2022-12-29T04:02:37;102070.31;;;6.73;87.94
57859;BME280;49153;45.568;11.894;2022-12-29T04:05:02;102073.69;;;6.77;87.97
57859;BME280;49153;45.568;11.894;2022-12-29T04:07:28;102047.00;;;6.66;88.10
57859;BME280;49153;45.568;11.894;2022-12-29T04:09:53;102047.72;;;6.69;88.24
57859;BME280;49153;45.568;11.894;2022-12-29T04:12:19;102051.78;;;6.78;88.49
57859;BME280;49153;45.568;11.894;2022-12-29T04:14:44;102057.66;;;6.86;88.37
57859;BME280;49153;45.568;11.894;2022-12-29T04:17:09;102065.59;;;6.83;88.29
57859;BME280;49153;45.568;11.894;2022-12-29T04:19:35;102044.94;;;6.74;88.21
57859;BME280;49153;45.568;11.894;2022-12-29T04:22:00;102051.88;;;6.76;88.31
57859;BME280;49153;45.568;11.894;2022-12-29T04:24:26;102058.88;;;6.76;88.46
57859;BME280;49153;45.568;11.894;2022-12-29T04:26:51;102058.81;;;6.77;88.77
57859;BME280;49153;45.568;11.894;2022-12-29T04:29:16;102059.88;;;6.72;88.43
57859;BME280;49153;45.568;11.894;2022-12-29T04:31:42;102068.59;;;6.72;88.70
57859;BME280;49153;45.568;11.894;2022-12-29T04:34:07;102066.84;;;6.73;88.92
57859;BME280;49153;45.568;11.894;2022-12-29T04:36:33;102061.66;;;6.71;88.88
57859;BME280;49153;45.568;11.894;2022-12-29T04:38:58;102053.63;;;6.76;89.29
57859;BME280;49153;45.568;11.894;2022-12-29T04:41:24;102070.75;;;6.86;89.07
57859;BME280;49153;45.568;11.894;2022-12-29T04:43:49;102056.66;;;6.89;89.05
57859;BME280;49153;45.568;11.894;2022-12-29T04:46:15;102045.44;;;6.85;89.21
57859;BME280;49153;45.568;11.894;2022-12-29T04:48:40;102045.31;;;6.88;89.41
57859;BME280;49153;45.568;11.894;2022-12-29T04:51:06;102046.13;;;6.90;89.25
57859;BME280;49153;45.568;11.894;2022-12-29T04:53:31;102056.63;;;6.90;89.53
57859;BME280;49153;45.568;11.894;2022-12-29T04:55:56;102076.44;;;6.99;89.00
57859;BME280;49153;45.568;11.894;2022-12-29T04:58:22;102073.75;;;7.00;89.04
57859;BME280;49153;45.568;11.894;2022-12-29T05:00:47;102058.34;;;6.91;89.10
57859;BME280;49153;45.568;11.894;2022-12-29T05:03:13;102053.16;;;6.90;89.04
57859;BME280;49153;45.568;11.894;2022-12-29T05:05:38;102047.84;;;6.91;89.23
57859;BME280;49153;45.568;11.894;2022-12-29T05:08:04;102054.25;;;6.83;89.03
57859;BME280;49153;45.568;11.894;2022-12-29T05:10:29;102054.53;;;6.75;89.29
57859;BME280;49153;45.568;11.894;2022-12-29T05:12:55;102054.63;;;6.72;89.37
57859;BME280;49153;45.568;11.894;2022-12-29T05:15:20;102062.38;;;6.76;89.57
57859;BME280;49153;45.568;11.894;2022-12-29T05:17:46;102052.88;;;6.72;89.70
57859;BME280;49153;45.568;11.894;2022-12-29T05:20:11;102062.97;;;6.83;89.73
57859;BME280;49153;45.568;11.894;2022-12-29T05:22:37;102071.56;;;6.88;89.67
57859;BME280;49153;45.568;11.894;2022-12-29T05:25:03;102072.38;;;6.90;89.25
57859;BME280;49153;45.568;11.894;2022-12-29T05:27:28;102062.00;;;6.87;89.27
57859;BME280;49153;45.568;11.894;2022-12-29T05:29:54;102061.06;;;6.88;89.34
57859;BME280;49153;45.568;11.894;2022-12-29T05:32:19;102073.81;;;6.99;89.67
57859;BME280;49153;45.568;11.894;2022-12-29T05:34:45;102068.94;;;6.88;89.26
57859;BME280;49153;45.568;11.894;2022-12-29T05:37:10;102064.88;;;6.79;89.04
57859;BME280;49153;45.568;11.894;2022-12-29T05:39:36;102066.91;;;6.71;89.03
57859;BME280;49153;45.568;11.894;2022-12-29T05:42:01;102070.97;;;6.80;89.10
57859;BME280;49153;45.568;11.894;2022-12-29T05:44:27;102083.09;;;6.83;88.94
57859;BME280;49153;45.568;11.894;2022-12-29T05:46:52;102073.63;;;6.78;89.03
57859;BME280;49153;45.568;11.894;2022-12-29T05:49:18;102066.13;;;6.68;88.86
57859;BME280;49153;45.568;11.894;2022-12-29T05:51:43;102074.81;;;6.70;89.29
57859;BME280;49153;45.568;11.894;2022-12-29T05:54:09;102069.63;;;6.68;89.38
57859;BME280;49153;45.568;11.894;2022-12-29T05:56:34;102078.22;;;6.72;89.73
57859;BME280;49153;45.568;11.894;2022-12-29T05:59:00;102085.09;;;6.76;89.39
57859;BME280;49153;45.568;11.894;2022-12-29T06:01:25;102090.97;;;6.83;89.96
57859;BME280;49153;45.568;11.894;2022-12-29T06:03:51;102080.75;;;6.75;89.54
57859;BME280;49153;45.568;11.894;2022-12-29T06:06:16;102096.38;;;6.78;89.28
57859;BME280;49153;45.568;11.894;2022-12-29T06:08:41;102093.75;;;6.78;89.64
57859;BME280;49153;45.568;11.894;2022-12-29T06:11:07;102089.41;;;6.77;89.46
57859;BME280;49153;45.568;11.894;2022-12-29T06:13:32;102085.84;;;6.79;89.69
57859;BME280;49153;45.568;11.894;2022-12-29T06:15:58;102068.44;;;6.77;89.76
57859;BME280;49153;45.568;11.894;2022-12-29T06:18:23;102071.06;;;6.77;89.69
57859;BME280;49153;45.568;11.894;2022-12-29T06:20:48;102075.50;;;6.75;89.83
57859;BME280;49153;45.568;11.894;2022-12-29T06:23:14;102077.28;;;6.74;89.46
57859;BME280;49153;45.568;11.894;2022-12-29T06:25:41;102084.25;;;6.75;89.73
57859;BME280;49153;45.568;11.894;2022-12-29T06:28:07;102072.19;;;6.70;90.08
57859;BME280;49153;45.568;11.894;2022-12-29T06:30:32;102083.25;;;6.78;90.34
57859;BME280;49153;45.568;11.894;2022-12-29T06:32:59;102088.44;;;6.81;90.28
57859;BME280;49153;45.568;11.894;2022-12-29T06:35:24;102075.31;;;6.81;89.85
57859;BME280;49153;45.568;11.894;2022-12-29T06:37:50;102071.81;;;6.81;89.87
57859;BME280;49153;45.568;11.894;2022-12-29T06:40:16;102066.50;;;6.82;90.19
57859;BME280;49153;45.568;11.894;2022-12-29T06:42:41;102070.84;;;6.83;89.92
57859;BME280;49153;45.568;11.894;2022-12-29T06:45:07;102070.75;;;6.86;89.80
57859;BME280;49153;45.568;11.894;2022-12-29T06:47:34;102063.59;;;6.91;89.86
57859;BME280;49153;45.568;11.894;2022-12-29T06:50:00;102059.38;;;6.87;89.66
57859;BME280;49153;45.568;11.894;2022-12-29T06:52:25;102057.75;;;6.83;89.92
57859;BME280;49153;45.568;11.894;2022-12-29T06:54:51;102068.88;;;6.90;90.03
57859;BME280;49153;45.568;11.894;2022-12-29T06:57:17;102069.75;;;6.90;89.78
57859;BME280;49153;45.568;11.894;2022-12-29T06:59:42;102049.16;;;6.78;89.60
57859;BME280;49153;45.568;11.894;2022-12-29T07:02:10;102060.34;;;6.83;90.05
57859;BME280;49153;45.568;11.894;2022-12-29T07:04:35;102066.38;;;6.87;90.05
57859;BME280;49153;45.568;11.894;2022-12-29T07:07:01;102071.63;;;6.87;89.74
57859;BME280;49153;45.568;11.894;2022-12-29T07:09:26;102091.63;;;6.89;89.35
57859;BME280;49153;45.568;11.894;2022-12-29T07:11:52;102083.19;;;6.81;89.32
57859;BME280;49153;45.568;11.894;2022-12-29T07:14:17;102085.19;;;6.73;89.53
57859;BME280;49153;45.568;11.894;2022-12-29T07:16:42;102092.16;;;6.74;89.58
57859;BME280;49153;45.568;11.894;2022-12-29T07:19:08;102101.59;;;6.79;89.73
57859;BME280;49153;45.568;11.894;2022-12-29T07:21:33;102101.69;;;6.76;89.81
57859;BME280;49153;45.568;11.894;2022-12-29T07:23:59;102100.72;;;6.79;89.81
57859;BME280;49153;45.568;11.894;2022-12-29T07:26:24;102099.81;;;6.80;89.96
57859;BME280;49153;45.568;11.894;2022-12-29T07:28:49;102092.09;;;6.75;89.97
57859;BME280;49153;45.568;11.894;2022-12-29T07:31:18;102086.00;;;6.75;89.89
57859;BME280;49153;45.568;11.894;2022-12-29T07:33:45;102096.56;;;6.72;89.86
57859;BME280;49153;45.568;11.894;2022-12-29T07:36:12;102090.78;;;6.62;89.94
57859;BME280;49153;45.568;11.894;2022-12-29T07:38:38;102097.59;;;6.68;90.21
57859;BME280;49153;45.568;11.894;2022-12-29T07:41:05;102098.44;;;6.68;90.29
57859;BME280;49153;45.568;11.894;2022-12-29T07:43:33;102086.59;;;6.57;90.64
57859;BME280;49153;45.568;11.894;2022-12-29T07:45:58;102081.28;;;6.60;90.75
57859;BME280;49153;45.568;11.894;2022-12-29T07:48:24;102073.28;;;6.63;90.95
57859;BME280;49153;45.568;11.894;2022-12-29T07:50:49;102076.81;;;6.62;91.09
57859;BME280;49153;45.568;11.894;2022-12-29T07:53:15;102055.31;;;6.52;91.33
57859;BME280;49153;45.568;11.894;2022-12-29T07:55:41;102064.19;;;6.48;91.34
57859;BME280;49153;45.568;11.894;2022-12-29T07:58:06;102075.22;;;6.58;91.58
57859;BME280;49153;45.568;11.894;2022-12-29T08:00:32;102062.16;;;6.56;91.55
57859;BME280;49153;45.568;11.894;2022-12-29T08:02:58;102105.56;;;6.65;91.58
57859;BME280;49153;45.568;11.894;2022-12-29T08:05:23;102118.97;;;6.56;91.36
57859;BME280;49153;45.568;11.894;2022-12-29T08:07:48;102115.44;;;6.57;91.19
57859;BME280;49153;45.568;11.894;2022-12-29T08:10:14;102127.44;;;6.64;91.45
57859;BME280;49153;45.568;11.894;2022-12-29T08:12:41;102136.13;;;6.66;91.32
57859;BME280;49153;45.568;11.894;2022-12-29T08:15:08;102135.97;;;6.70;91.27
57859;BME280;49153;45.568;11.894;2022-12-29T08:17:34;102122.94;;;6.67;91.43
57859;BME280;49153;45.568;11.894;2022-12-29T08:19:59;102124.69;;;6.68;91.24
57859;BME280;49153;45.568;11.894;2022-12-29T08:22:25;102135.81;;;6.75;91.29
57859;BME280;49153;45.568;11.894;2022-12-29T08:24:50;102132.19;;;6.79;91.62
57859;BME280;49153;45.568;11.894;2022-12-29T08:27:16;102124.13;;;6.85;91.54
57859;BME280;49153;45.568;11.894;2022-12-29T08:29:42;102123.31;;;6.83;91.65
57859;BME280;49153;45.568;11.894;2022-12-29T08:32:07;102129.56;;;6.79;91.43
57859;BME280;49153;45.568;11.894;2022-12-29T08:34:33;102152.16;;;6.83;91.54
57859;BME280;49153;45.568;11.894;2022-12-29T08:36:59;102141.50;;;6.88;91.71
57859;BME280;49153;45.568;11.894;2022-12-29T08:39:24;102123.22;;;6.86;92.02
57859;BME280;49153;45.568;11.894;2022-12-29T08:41:49;102127.28;;;6.95;92.10
57859;BME280;49153;45.568;11.894;2022-12-29T08:44:15;102117.53;;;6.98;92.40
57859;BME280;49153;45.568;11.894;2022-12-29T08:46:40;102127.59;;;7.12;92.06
57859;BME280;49153;45.568;11.894;2022-12-29T08:49:06;102133.31;;;7.23;92.14
57859;BME280;49153;45.568;11.894;2022-12-29T08:51:31;102133.16;;;7.28;92.23
57859;BME280;49153;45.568;11.894;2022-12-29T08:53:57;102138.13;;;7.35;92.38
57859;BME280;49153;45.568;11.894;2022-12-29T08:56:22;102147.34;;;7.47;92.48
57859;BME280;49153;45.568;11.894;2022-12-29T08:58:49;102141.06;;;7.51;92.40
57859;BME280;49153;45.568;11.894;2022-12-29T09:01:14;102163.69;;;7.55;92.13
57859;BME280;49153;45.568;11.894;2022-12-29T09:03:40;102151.56;;;7.51;91.46
57859;BME280;49153;45.568;11.894;2022-12-29T09:06:05;102159.13;;;7.60;92.04
57859;BME280;49153;45.568;11.894;2022-12-29T09:08:31;102142.38;;;7.62;92.08
57859;BME280;49153;45.568;11.894;2022-12-29T09:11:15;102134.25;;;7.70;92.20
57859;BME280;49153;45.568;11.894;2022-12-29T09:13:41;102142.69;;;7.78;92.15
57859;BME280;49153;45.568;11.894;2022-12-29T09:16:07;102156.41;;;7.86;92.24
57859;BME280;49153;45.568;11.894;2022-12-29T09:18:32;102135.47;;;7.83;91.80
57859;BME280;49153;45.568;11.894;2022-12-29T09:21:00;102150.78;;;7.95;92.00
57859;BME280;49153;45.568;11.894;2022-12-29T09:23:26;102143.31;;;8.08;92.51
57859;BME280;49153;45.568;11.894;2022-12-29T09:25:53;102146.53;;;8.15;91.97
57859;BME280;49153;45.568;11.894;2022-12-29T09:28:19;102144.91;;;8.12;91.26
57859;BME280;49153;45.568;11.894;2022-12-29T09:30:44;102167.09;;;8.27;91.12
57859;BME280;49153;45.568;11.894;2022-12-29T09:33:10;102152.97;;;8.31;91.40
57859;BME280;49153;45.568;11.894;2022-12-29T09:35:35;102146.84;;;8.30;91.33
57859;BME280;49153;45.568;11.894;2022-12-29T09:38:01;102158.22;;;8.31;90.80
57859;BME280;49153;45.568;11.894;2022-12-29T09:40:31;102164.09;;;8.37;90.91
57859;BME280;49153;45.568;11.894;2022-12-29T09:46:15;102170.66;;;8.49;90.61
57859;BME280;49153;45.568;11.894;2022-12-29T09:48:50;102152.34;;;8.46;90.62
57859;BME280;49153;45.568;11.894;2022-12-29T09:51:22;102150.44;;;8.51;90.36
57859;BME280;49153;45.568;11.894;2022-12-29T09:53:57;102145.03;;;8.54;90.16
57859;BME280;49153;45.568;11.894;2022-12-29T09:56:24;102151.63;;;8.64;90.64
57859;BME280;49153;45.568;11.894;2022-12-29T09:59:09;102154.94;;;8.69;90.58
57859;BME280;49153;45.568;11.894;2022-12-29T10:01:44;102153.88;;;8.73;90.46
57859;BME280;49153;45.568;11.894;2022-12-29T10:04:12;102154.63;;;8.77;89.62
57859;BME280;49153;45.568;11.894;2022-12-29T10:06:42;102151.63;;;8.86;89.55
57859;BME280;49153;45.568;11.894;2022-12-29T10:09:16;102138.50;;;8.84;88.90
57859;BME280;49153;45.568;11.894;2022-12-29T10:12:21;102140.22;;;8.85;89.14
57859;BME280;49153;45.568;11.894;2022-12-29T10:17:54;102134.72;;;8.92;88.96
57859;BME280;49153;45.568;11.894;2022-12-29T10:25:37;102119.38;;;9.01;88.31
57859;BME280;49153;45.568;11.894;2022-12-29T10:28:11;102106.44;;;8.97;87.90
57859;BME280;49153;45.568;11.894;2022-12-29T10:30:41;102109.78;;;9.00;87.93
57859;BME280;49153;45.568;11.894;2022-12-29T10:33:11;102100.09;;;9.01;88.21
57859;BME280;49153;45.568;11.894;2022-12-29T10:35:41;102101.63;;;9.06;88.01
57859;BME280;49153;45.568;11.894;2022-12-29T10:38:19;102098.94;;;9.08;87.89
57859;BME280;49153;45.568;11.894;2022-12-29T10:40:53;102093.53;;;9.11;88.13
57859;BME280;49153;45.568;11.894;2022-12-29T10:45:45;102109.84;;;9.19;88.47
57859;BME280;49153;45.568;11.894;2022-12-29T10:48:21;102100.75;;;9.26;88.06
57859;BME280;49153;45.568;11.894;2022-12-29T10:50:48;102099.72;;;9.30;88.08
57859;BME280;49153;45.568;11.894;2022-12-29T10:53:21;102101.28;;;9.34;87.51
57859;BME280;49153;45.568;11.894;2022-12-29T10:55:48;102091.03;;;9.28;87.32
57859;BME280;49153;45.568;11.894;2022-12-29T10:58:14;102089.03;;;9.33;87.17
57859;BME280;49153;45.568;11.894;2022-12-29T11:00:41;102083.63;;;9.36;87.58
57859;BME280;49153;45.568;11.894;2022-12-29T11:04:10;102076.31;;;9.43;87.76
57859;BME280;49153;45.568;11.894;2022-12-29T11:06:18;102067.16;;;9.51;87.09
57859;BME280;49153;45.568;11.894;2022-12-29T11:08:55;102051.47;;;9.48;86.70
57859;BME280;49153;45.568;11.894;2022-12-29T11:11:33;102063.19;;;9.61;87.13
57859;BME280;49153;45.568;11.894;2022-12-29T11:14:08;102066.44;;;9.66;86.49
57859;BME280;49153;45.568;11.894;2022-12-29T11:16:36;102079.47;;;9.69;86.21
57859;BME280;49153;45.568;11.894;2022-12-29T11:19:02;102083.97;;;9.67;85.90
57859;BME280;49153;45.568;11.894;2022-12-29T11:21:34;102084.09;;;9.64;85.35
57859;BME280;49153;45.568;11.894;2022-12-29T11:24:19;102082.25;;;9.66;85.79
57859;BME280;49153;45.568;11.894;2022-12-29T11:26:46;102074.13;;;9.71;85.58
57859;BME280;49153;45.568;11.894;2022-12-29T11:31:42;102075.69;;;9.75;86.03
57859;BME280;49153;45.568;11.894;2022-12-29T11:34:08;102075.50;;;9.80;86.01
57859;BME280;49153;45.568;11.894;2022-12-29T11:36:35;102058.59;;;9.84;86.14
57859;BME280;49153;45.568;11.894;2022-12-29T11:39:01;102054.81;;;9.89;85.97
57859;BME280;49153;45.568;11.894;2022-12-29T11:41:31;102044.91;;;9.94;85.08
57859;BME280;49153;45.568;11.894;2022-12-29T11:43:59;102025.47;;;9.97;84.96
57859;BME280;49153;45.568;11.894;2022-12-29T11:46:29;102034.25;;;9.97;85.11
57859;BME280;49153;45.568;11.894;2022-12-29T11:48:57;102027.09;;;9.99;85.28
57859;BME280;49153;45.568;11.894;2022-12-29T11:51:29;102039.69;;;10.11;84.99
57859;BME280;49153;45.568;11.894;2022-12-29T11:54:00;102029.22;;;10.10;84.65
57859;BME280;49153;45.568;11.894;2022-12-29T11:56:46;102037.66;;;10.18;84.59
57859;BME280;49153;45.568;11.894;2022-12-29T12:01:54;102025.09;;;10.23;84.54
57859;BME280;49153;45.568;11.894;2022-12-29T12:04:26;102020.69;;;10.24;84.08
57859;BME280;49153;45.568;11.894;2022-12-29T12:07:03;102013.47;;;10.27;84.66
57859;BME280;49153;45.568;11.894;2022-12-29T12:09:38;101999.28;;;10.30;84.44
57859;BME280;49153;45.568;11.894;2022-12-29T12:12:11;102003.31;;;10.20;82.93
57859;BME280;49153;45.568;11.894;2022-12-29T12:14:54;101998.31;;;10.13;83.08
57859;BME280;49153;45.568;11.894;2022-12-29T12:17:47;101978.81;;;9.99;83.63
57859;BME280;49153;45.568;11.894;2022-12-29T12:23:06;102014.06;;;10.15;83.22
57859;BME280;49153;45.568;11.894;2022-12-29T12:25:43;102002.72;;;10.13;83.05
57859;BME280;49153;45.568;11.894;2022-12-29T12:28:36;102009.50;;;10.19;83.37
57859;BME280;49153;45.568;11.894;2022-12-29T12:31:05;102002.47;;;10.19;83.18
57859;BME280;49153;45.568;11.894;2022-12-29T12:33:39;101992.59;;;10.23;83.64
57859;BME280;49153;45.568;11.894;2022-12-29T12:48:02;101988.50;;;10.51;83.16
57859;BME280;49153;45.568;11.894;2022-12-29T12:51:04;101986.00;;;10.48;82.66
57859;BME280;49153;45.568;11.894;2022-12-29T12:53:41;101993.78;;;10.51;82.54
57859;BME280;49153;45.568;11.894;2022-12-29T12:58:59;101987.34;;;10.57;82.08
57859;BME280;49153;45.568;11.894;2022-12-29T13:15:57;101985.72;;;10.54;81.68
57859;BME280;49153;45.568;11.894;2022-12-29T13:21:29;101964.16;;;10.46;81.85
57859;BME280;49153;45.568;11.894;2022-12-29T13:24:45;101955.53;;;10.43;82.07
57859;BME280;49153;45.568;11.894;2022-12-29T13:30:21;101964.97;;;10.47;82.31
57859;BME280;49153;45.568;11.894;2022-12-29T13:36:05;101959.56;;;10.50;82.49
57859;BME280;49153;45.568;11.894;2022-12-29T13:38:43;101976.94;;;10.54;82.20
57859;BME280;49153;45.568;11.894;2022-12-29T13:41:41;101973.84;;;10.46;82.11
57859;BME280;49153;45.568;11.894;2022-12-29T13:44:14;101978.09;;;10.48;82.15
57859;BME280;49153;45.568;11.894;2022-12-29T13:46:44;101980.13;;;10.43;82.26
57859;BME280;49153;45.568;11.894;2022-12-29T13:49:29;101984.16;;;10.33;81.43
57859;BME280;49153;45.568;11.894;2022-12-29T13:51:57;101993.00;;;10.32;82.07
57859;BME280;49153;45.568;11.894;2022-12-29T13:54:48;101993.91;;;10.31;82.68
57859;BME280;49153;45.568;11.894;2022-12-29T14:00:15;101992.38;;;10.27;82.87
57859;BME280;49153;45.568;11.894;2022-12-29T14:08:11;101991.44;;;10.28;83.53
57859;BME280;49153;45.568;11.894;2022-12-29T14:10:48;101974.06;;;10.24;83.03
57859;BME280;49153;45.568;11.894;2022-12-29T14:13:18;101982.44;;;10.32;83.45
57859;BME280;49153;45.568;11.894;2022-12-29T14:15:54;101981.81;;;10.27;82.85
57859;BME280;49153;45.568;11.894;2022-12-29T14:18:28;101982.91;;;10.23;83.36
57859;BME280;49153;45.568;11.894;2022-12-29T14:23:40;101990.03;;;10.21;82.90
57859;BME280;49153;45.568;11.894;2022-12-29T14:28:43;101999.59;;;10.24;83.63
57859;BME280;49153;45.568;11.894;2022-12-29T14:34:14;101996.09;;;10.23;83.43
57859;BME280;49153;45.568;11.894;2022-12-29T14:39:40;101996.03;;;10.25;83.63
57859;BME280;49153;45.568;11.894;2022-12-29T14:47:37;102004.94;;;10.22;83.48
57859;BME280;49153;45.568;11.894;2022-12-29T14:52:30;101989.81;;;10.26;84.16
57859;BME280;49153;45.568;11.894;2022-12-29T14:54:57;101990.59;;;10.28;84.26
57859;BME280;49153;45.568;11.894;2022-12-29T14:57:32;101983.59;;;10.27;84.21
57859;BME280;49153;45.568;11.894;2022-12-29T15:00:21;101989.59;;;10.30;84.16
57859;BME280;49153;45.568;11.894;2022-12-29T15:03:02;101985.31;;;10.28;83.82
57859;BME280;49153;45.568;11.894;2022-12-29T15:05:33;101983.53;;;10.28;84.25
57859;BME280;49153;45.568;11.894;2022-12-29T15:08:00;101982.44;;;10.32;84.45
57859;BME280;49153;45.568;11.894;2022-12-29T15:10:34;101983.22;;;10.34;84.46